Amherst, Nebraska
Current Conditions -  °F | °C
As of 4:15 AM on Friday 31 Oct 2014 (Local Time) from KEAR Reporting Station
Overcast Overcast  
Wind Chill: -4°   Ceiling: 1700
Heat Index:   Visibility: 10mi
Dew Point: -3°   Wind: 13mph
Humidity: 75%   Direction: 330°NNW
Pressure: 30.5"   Gusts: NA
Location:  40.77°N, 99.27°W
Report Text: KEAR 310915Z 33011KT 10SM OVC017 01/M03 A3050 RMK AO1
Loading
Personal Weather Stations






























Interactive Weather Map
Tropical Storm Tracking
New forecast layout! Learn more

10-Day Weather Forecast

Advertisements
Track Severe Weather on mobile